sensor_id;sensor_type;location;lat;lon;timestamp;pressure;altitude;pressure_sealevel;temperature;humidity
76311;BME280;65120;59.304;18.294;2023-02-01T00:02:11;99139.03;;;-2.47;64.35
76311;BME280;65120;59.304;18.294;2023-02-01T00:04:38;99140.72;;;-2.50;64.79
76311;BME280;65120;59.304;18.294;2023-02-01T00:07:05;99148.38;;;-2.48;64.45
76311;BME280;65120;59.304;18.294;2023-02-01T00:09:32;99144.16;;;-2.47;64.56
76311;BME280;65120;59.304;18.294;2023-02-01T00:11:58;99136.44;;;-2.49;64.43
76311;BME280;65120;59.304;18.294;2023-02-01T00:14:28;99132.19;;;-2.50;64.62
76311;BME280;65120;59.304;18.294;2023-02-01T00:16:55;99136.41;;;-2.51;64.37
76311;BME280;65120;59.304;18.294;2023-02-01T00:19:22;99131.28;;;-2.54;64.77
76311;BME280;65120;59.304;18.294;2023-02-01T00:21:49;99135.56;;;-2.53;64.88
76311;BME280;65120;59.304;18.294;2023-02-01T00:24:16;99130.47;;;-2.53;64.74
76311;BME280;65120;59.304;18.294;2023-02-01T00:26:44;99125.31;;;-2.54;65.09
76311;BME280;65120;59.304;18.294;2023-02-01T00:29:13;99114.19;;;-2.64;64.68
76311;BME280;65120;59.304;18.294;2023-02-01T00:31:41;99121.03;;;-2.57;64.89
76311;BME280;65120;59.304;18.294;2023-02-01T00:34:10;99113.34;;;-2.60;64.94
76311;BME280;65120;59.304;18.294;2023-02-01T00:36:38;99116.78;;;-2.58;64.63
76311;BME280;65120;59.304;18.294;2023-02-01T00:39:05;99127.00;;;-2.58;65.01
76311;BME280;65120;59.304;18.294;2023-02-01T00:41:32;99125.31;;;-2.57;65.17
76311;BME280;65120;59.304;18.294;2023-02-01T00:43:59;99127.00;;;-2.58;65.06
76311;BME280;65120;59.304;18.294;2023-02-01T00:46:27;99120.19;;;-2.59;64.83
76311;BME280;65120;59.304;18.294;2023-02-01T00:48:55;99132.13;;;-2.58;64.98
76311;BME280;65120;59.304;18.294;2023-02-01T00:51:24;99118.50;;;-2.58;65.12
76311;BME280;65120;59.304;18.294;2023-02-01T00:53:52;99113.38;;;-2.58;65.22
76311;BME280;65120;59.304;18.294;2023-02-01T00:56:19;99118.47;;;-2.57;65.40
76311;BME280;65120;59.304;18.294;2023-02-01T00:58:46;99115.09;;;-2.59;65.42
76311;BME280;65120;59.304;18.294;2023-02-01T01:01:15;99119.34;;;-2.58;65.45
76311;BME280;65120;59.304;18.294;2023-02-01T01:03:43;99119.34;;;-2.58;65.33
76311;BME280;65120;59.304;18.294;2023-02-01T01:06:14;99117.63;;;-2.59;65.48
76311;BME280;65120;59.304;18.294;2023-02-01T01:08:41;99116.78;;;-2.58;65.29
76311;BME280;65120;59.304;18.294;2023-02-01T01:11:11;99120.22;;;-2.56;65.46
76311;BME280;65120;59.304;18.294;2023-02-01T01:13:38;99121.06;;;-2.55;65.37
76311;BME280;65120;59.304;18.294;2023-02-01T01:16:06;99108.28;;;-2.54;65.51
76311;BME280;65120;59.304;18.294;2023-02-01T01:18:34;99108.28;;;-2.54;65.57
76311;BME280;65120;59.304;18.294;2023-02-01T01:21:01;99111.72;;;-2.53;65.67
76311;BME280;65120;59.304;18.294;2023-02-01T01:23:31;99122.78;;;-2.53;65.74
76311;BME280;65120;59.304;18.294;2023-02-01T01:25:58;99125.34;;;-2.53;65.42
76311;BME280;65120;59.304;18.294;2023-02-01T01:28:25;99133.00;;;-2.51;65.73
76311;BME280;65120;59.304;18.294;2023-02-01T01:30:52;99133.88;;;-2.51;65.65
76311;BME280;65120;59.304;18.294;2023-02-01T01:33:19;99133.03;;;-2.50;65.66
76311;BME280;65120;59.304;18.294;2023-02-01T01:35:45;99129.63;;;-2.49;65.74
76311;BME280;65120;59.304;18.294;2023-02-01T01:38:12;99135.63;;;-2.46;65.87
76311;BME280;65120;59.304;18.294;2023-02-01T01:40:44;99120.22;;;-2.54;65.81
76311;BME280;65120;59.304;18.294;2023-02-01T01:43:15;99134.75;;;-2.45;65.92
76311;BME280;65120;59.304;18.294;2023-02-01T01:45:43;99139.06;;;-2.44;65.75
76311;BME280;65120;59.304;18.294;2023-02-01T01:48:14;99134.78;;;-2.44;66.28
76311;BME280;65120;59.304;18.294;2023-02-01T01:50:45;99133.94;;;-2.43;66.06
76311;BME280;65120;59.304;18.294;2023-02-01T01:53:17;99122.88;;;-2.42;65.91
76311;BME280;65120;59.304;18.294;2023-02-01T01:55:48;99134.81;;;-2.41;66.02
76311;BME280;65120;59.304;18.294;2023-02-01T01:58:19;99132.25;;;-2.39;65.95
76311;BME280;65120;59.304;18.294;2023-02-01T02:00:47;99133.13;;;-2.39;65.89
76311;BME280;65120;59.304;18.294;2023-02-01T02:03:18;99139.94;;;-2.38;66.09
76311;BME280;65120;59.304;18.294;2023-02-01T02:05:48;99140.78;;;-2.37;65.99
76311;BME280;65120;59.304;18.294;2023-02-01T02:08:15;99140.81;;;-2.36;65.92
76311;BME280;65120;59.304;18.294;2023-02-01T02:10:43;99141.66;;;-2.35;66.20
76311;BME280;65120;59.304;18.294;2023-02-01T02:13:32;99146.78;;;-2.34;66.15
76311;BME280;65120;59.304;18.294;2023-02-01T02:16:17;99147.66;;;-2.33;66.31
76311;BME280;65120;59.304;18.294;2023-02-01T02:18:54;99137.44;;;-2.32;66.19
76311;BME280;65120;59.304;18.294;2023-02-01T02:21:34;99137.44;;;-2.33;65.85
76311;BME280;65120;59.304;18.294;2023-02-01T02:24:41;99134.03;;;-2.29;66.18
76311;BME280;65120;59.304;18.294;2023-02-01T02:27:18;99119.53;;;-2.33;66.32
76311;BME280;65120;59.304;18.294;2023-02-01T02:30:19;99128.94;;;-2.26;66.43
76311;BME280;65120;59.304;18.294;2023-02-01T02:33:32;99122.13;;;-2.26;66.02
76311;BME280;65120;59.304;18.294;2023-02-01T02:36:08;99111.06;;;-2.24;66.25
76311;BME280;65120;59.304;18.294;2023-02-01T02:38:42;99118.72;;;-2.23;66.29
76311;BME280;65120;59.304;18.294;2023-02-01T02:41:15;99120.47;;;-2.22;66.39
76311;BME280;65120;59.304;18.294;2023-02-01T02:44:10;99125.59;;;-2.19;66.22
76311;BME280;65120;59.304;18.294;2023-02-01T02:47:01;99120.47;;;-2.17;66.44
76311;BME280;65120;59.304;18.294;2023-02-01T02:49:52;99119.59;;;-2.16;66.74
76311;BME280;65120;59.304;18.294;2023-02-01T02:52:36;99118.78;;;-2.14;66.46
76311;BME280;65120;59.304;18.294;2023-02-01T02:55:23;99129.88;;;-2.13;66.53
76311;BME280;65120;59.304;18.294;2023-02-01T02:57:53;99136.69;;;-2.11;66.16
76311;BME280;65120;59.304;18.294;2023-02-01T03:00:39;99132.44;;;-2.12;66.59
76311;BME280;65120;59.304;18.294;2023-02-01T03:03:24;99142.69;;;-2.09;66.66
76311;BME280;65120;59.304;18.294;2023-02-01T03:06:13;99129.91;;;-2.09;66.67
76311;BME280;65120;59.304;18.294;2023-02-01T03:08:41;99135.03;;;-2.06;66.63
76311;BME280;65120;59.304;18.294;2023-02-01T03:11:12;99135.03;;;-2.06;66.79
76311;BME280;65120;59.304;18.294;2023-02-01T03:13:45;99141.88;;;-2.03;66.80
76311;BME280;65120;59.304;18.294;2023-02-01T03:16:15;99147.00;;;-2.03;66.69
76311;BME280;65120;59.304;18.294;2023-02-01T03:18:50;99132.50;;;-2.04;66.77
76311;BME280;65120;59.304;18.294;2023-02-01T03:21:24;99137.63;;;-1.99;66.53
76311;BME280;65120;59.304;18.294;2023-02-01T03:23:53;99147.03;;;-1.98;66.86
76311;BME280;65120;59.304;18.294;2023-02-01T03:26:22;99148.72;;;-1.99;66.76
76311;BME280;65120;59.304;18.294;2023-02-01T03:28:55;99151.31;;;-1.96;67.06
76311;BME280;65120;59.304;18.294;2023-02-01T03:31:24;99146.19;;;-1.94;66.82
76311;BME280;65120;59.304;18.294;2023-02-01T03:33:51;99135.13;;;-1.93;66.67
76311;BME280;65120;59.304;18.294;2023-02-01T03:36:24;99135.13;;;-1.92;67.33
76311;BME280;65120;59.304;18.294;2023-02-01T03:38:58;99131.69;;;-1.91;66.65
76311;BME280;65120;59.304;18.294;2023-02-01T03:41:28;99134.28;;;-1.89;66.35
76311;BME280;65120;59.304;18.294;2023-02-01T03:44:06;99136.84;;;-1.89;66.71
76311;BME280;65120;59.304;18.294;2023-02-01T03:46:40;99137.69;;;-1.89;66.87
76311;BME280;65120;59.304;18.294;2023-02-01T03:49:11;99130.84;;;-1.91;66.69
76311;BME280;65120;59.304;18.294;2023-02-01T03:51:42;99144.53;;;-1.86;66.98
76311;BME280;65120;59.304;18.294;2023-02-01T03:54:12;99141.09;;;-1.85;67.10
76311;BME280;65120;59.304;18.294;2023-02-01T03:56:44;99147.09;;;-1.85;67.25
76311;BME280;65120;59.304;18.294;2023-02-01T03:59:13;99154.78;;;-1.83;67.35
76311;BME280;65120;59.304;18.294;2023-02-01T04:01:40;99147.09;;;-1.83;67.01
76311;BME280;65120;59.304;18.294;2023-02-01T04:04:07;99151.38;;;-1.82;67.47
76311;BME280;65120;59.304;18.294;2023-02-01T04:06:34;99142.84;;;-1.81;67.38
76311;BME280;65120;59.304;18.294;2023-02-01T04:09:03;99144.56;;;-1.78;66.95
76311;BME280;65120;59.304;18.294;2023-02-01T04:11:30;99136.03;;;-1.77;67.28
76311;BME280;65120;59.304;18.294;2023-02-01T04:13:57;99138.63;;;-1.76;67.49
76311;BME280;65120;59.304;18.294;2023-02-01T04:16:29;99146.28;;;-1.74;67.37
76311;BME280;65120;59.304;18.294;2023-02-01T04:18:56;99136.06;;;-1.74;67.01
76311;BME280;65120;59.304;18.294;2023-02-01T04:21:23;99143.75;;;-1.71;67.42
76311;BME280;65120;59.304;18.294;2023-02-01T04:23:50;99138.59;;;-1.74;67.10
76311;BME280;65120;59.304;18.294;2023-02-01T04:26:19;99148.03;;;-1.67;67.05
76311;BME280;65120;59.304;18.294;2023-02-01T04:28:47;99137.81;;;-1.67;67.40
76311;BME280;65120;59.304;18.294;2023-02-01T04:31:14;99142.06;;;-1.66;67.22
76311;BME280;65120;59.304;18.294;2023-02-01T04:33:41;99148.91;;;-1.64;67.56
76311;BME280;65120;59.304;18.294;2023-02-01T04:36:08;99151.47;;;-1.64;67.72
76311;BME280;65120;59.304;18.294;2023-02-01T04:38:35;99154.91;;;-1.62;67.36
76311;BME280;65120;59.304;18.294;2023-02-01T04:41:01;99159.16;;;-1.61;67.12
76311;BME280;65120;59.304;18.294;2023-02-01T04:43:30;99153.19;;;-1.60;67.29
76311;BME280;65120;59.304;18.294;2023-02-01T04:45:56;99146.34;;;-1.61;67.32
76311;BME280;65120;59.304;18.294;2023-02-01T04:48:23;99154.91;;;-1.57;67.65
76311;BME280;65120;59.304;18.294;2023-02-01T04:50:50;99147.25;;;-1.55;67.49
76311;BME280;65120;59.304;18.294;2023-02-01T04:53:17;99143.81;;;-1.54;67.44
76311;BME280;65120;59.304;18.294;2023-02-01T04:55:44;99139.56;;;-1.52;67.58
76311;BME280;65120;59.304;18.294;2023-02-01T04:58:11;99136.16;;;-1.51;67.81
76311;BME280;65120;59.304;18.294;2023-02-01T05:00:39;99125.03;;;-1.55;67.46
76311;BME280;65120;59.304;18.294;2023-02-01T05:03:06;99132.75;;;-1.49;67.83
76311;BME280;65120;59.304;18.294;2023-02-01T05:05:33;99135.31;;;-1.47;67.72
76311;BME280;65120;59.304;18.294;2023-02-01T05:08:00;99131.06;;;-1.47;67.50
76311;BME280;65120;59.304;18.294;2023-02-01T05:10:27;99115.63;;;-1.61;67.42
76311;BME280;65120;59.304;18.294;2023-02-01T05:12:54;99137.03;;;-1.46;67.78
76311;BME280;65120;59.304;18.294;2023-02-01T05:15:39;99148.13;;;-1.43;67.92
76311;BME280;65120;59.304;18.294;2023-02-01T05:18:06;99153.28;;;-1.41;67.63
76311;BME280;65120;59.304;18.294;2023-02-01T05:20:33;99149.84;;;-1.40;67.71
76311;BME280;65120;59.304;18.294;2023-02-01T05:22:59;99154.13;;;-1.41;68.04
76311;BME280;65120;59.304;18.294;2023-02-01T05:25:26;99149.84;;;-1.43;68.12
76311;BME280;65120;59.304;18.294;2023-02-01T05:27:53;99144.72;;;-1.43;68.33
76311;BME280;65120;59.304;18.294;2023-02-01T05:30:20;99158.41;;;-1.38;67.82
76311;BME280;65120;59.304;18.294;2023-02-01T05:32:51;99156.72;;;-1.36;67.74
76311;BME280;65120;59.304;18.294;2023-02-01T05:35:18;99167.78;;;-1.34;67.98
76311;BME280;65120;59.304;18.294;2023-02-01T05:37:45;99160.13;;;-1.36;68.36
76311;BME280;65120;59.304;18.294;2023-02-01T05:40:12;99171.22;;;-1.32;68.30
76311;BME280;65120;59.304;18.294;2023-02-01T05:42:39;99169.53;;;-1.30;68.38
76311;BME280;65120;59.304;18.294;2023-02-01T05:45:07;99175.53;;;-1.28;68.34
76311;BME280;65120;59.304;18.294;2023-02-01T05:47:34;99178.06;;;-1.26;67.80
76311;BME280;65120;59.304;18.294;2023-02-01T05:50:03;99165.28;;;-1.31;68.15
76311;BME280;65120;59.304;18.294;2023-02-01T05:52:31;99181.50;;;-1.23;68.43
76311;BME280;65120;59.304;18.294;2023-02-01T05:54:58;99173.81;;;-1.26;68.54
76311;BME280;65120;59.304;18.294;2023-02-01T05:57:25;99186.63;;;-1.20;68.41
76311;BME280;65120;59.304;18.294;2023-02-01T05:59:52;99173.81;;;-1.20;68.69
76311;BME280;65120;59.304;18.294;2023-02-01T06:02:19;99193.50;;;-1.16;68.11
76311;BME280;65120;59.304;18.294;2023-02-01T06:04:47;99184.94;;;-1.15;68.41
76311;BME280;65120;59.304;18.294;2023-02-01T06:07:15;99189.25;;;-1.14;68.55
76311;BME280;65120;59.304;18.294;2023-02-01T06:09:42;99186.66;;;-1.12;68.30
76311;BME280;65120;59.304;18.294;2023-02-01T06:12:09;99185.81;;;-1.09;67.80
76311;BME280;65120;59.304;18.294;2023-02-01T06:14:35;99180.72;;;-1.08;68.57
76311;BME280;65120;59.304;18.294;2023-02-01T06:17:03;99193.50;;;-1.06;68.56
76311;BME280;65120;59.304;18.294;2023-02-01T06:19:31;99196.94;;;-1.07;68.54
76311;BME280;65120;59.304;18.294;2023-02-01T06:21:57;99201.22;;;-1.03;68.41
76311;BME280;65120;59.304;18.294;2023-02-01T06:24:26;99202.94;;;-1.02;68.56
76311;BME280;65120;59.304;18.294;2023-02-01T06:26:52;99190.94;;;-1.09;68.37
76311;BME280;65120;59.304;18.294;2023-02-01T06:29:19;99180.72;;;-1.11;68.71
76311;BME280;65120;59.304;18.294;2023-02-01T06:31:46;99202.09;;;-0.97;68.47
76311;BME280;65120;59.304;18.294;2023-02-01T06:34:13;99206.34;;;-0.97;68.70
76311;BME280;65120;59.304;18.294;2023-02-01T06:36:40;99213.19;;;-0.96;68.33
76311;BME280;65120;59.304;18.294;2023-02-01T06:39:07;99210.66;;;-0.96;68.02
76311;BME280;65120;59.304;18.294;2023-02-01T06:41:35;99215.78;;;-0.93;68.39
76311;BME280;65120;59.304;18.294;2023-02-01T06:44:02;99216.63;;;-0.91;68.99
76311;BME280;65120;59.304;18.294;2023-02-01T06:46:29;99211.53;;;-0.91;68.61
76311;BME280;65120;59.304;18.294;2023-02-01T06:48:56;99214.91;;;-0.89;68.66
76311;BME280;65120;59.304;18.294;2023-02-01T06:51:24;99208.94;;;-0.89;68.87
76311;BME280;65120;59.304;18.294;2023-02-01T06:53:51;99217.50;;;-0.87;68.31
76311;BME280;65120;59.304;18.294;2023-02-01T06:56:18;99218.34;;;-0.85;68.69
76311;BME280;65120;59.304;18.294;2023-02-01T06:58:47;99213.22;;;-0.84;68.66
76311;BME280;65120;59.304;18.294;2023-02-01T07:01:15;99219.19;;;-0.83;68.22
76311;BME280;65120;59.304;18.294;2023-02-01T07:03:42;99218.38;;;-0.82;68.78
76311;BME280;65120;59.304;18.294;2023-02-01T07:06:09;99215.81;;;-0.82;68.36
76311;BME280;65120;59.304;18.294;2023-02-01T07:08:37;99217.50;;;-0.78;68.52
76311;BME280;65120;59.304;18.294;2023-02-01T07:11:05;99214.97;;;-0.77;68.78
76311;BME280;65120;59.304;18.294;2023-02-01T07:13:32;99221.78;;;-0.76;68.81
76311;BME280;65120;59.304;18.294;2023-02-01T07:16:02;99218.38;;;-0.75;68.56
76311;BME280;65120;59.304;18.294;2023-02-01T07:18:29;99214.97;;;-0.74;68.34
76311;BME280;65120;59.304;18.294;2023-02-01T07:20:57;99207.28;;;-0.74;68.79
76311;BME280;65120;59.304;18.294;2023-02-01T07:23:24;99209.84;;;-0.71;68.92
76311;BME280;65120;59.304;18.294;2023-02-01T07:25:53;99208.97;;;-0.70;68.65
76311;BME280;65120;59.304;18.294;2023-02-01T07:28:20;99204.72;;;-0.74;68.81
76311;BME280;65120;59.304;18.294;2023-02-01T07:30:47;99214.97;;;-0.68;68.51
76311;BME280;65120;59.304;18.294;2023-02-01T07:33:18;99222.66;;;-0.66;68.36
76311;BME280;65120;59.304;18.294;2023-02-01T07:35:46;99222.66;;;-0.64;68.46
76311;BME280;65120;59.304;18.294;2023-02-01T07:38:13;99221.81;;;-0.63;68.50
76311;BME280;65120;59.304;18.294;2023-02-01T07:40:40;99228.66;;;-0.62;68.63
76311;BME280;65120;59.304;18.294;2023-02-01T07:43:07;99226.09;;;-0.62;68.78
76311;BME280;65120;59.304;18.294;2023-02-01T07:45:35;99228.66;;;-0.61;68.82
76311;BME280;65120;59.304;18.294;2023-02-01T07:48:02;99232.06;;;-0.60;68.57
76311;BME280;65120;59.304;18.294;2023-02-01T07:50:31;99200.41;;;-0.81;68.48
76311;BME280;65120;59.304;18.294;2023-02-01T07:52:58;99240.63;;;-0.58;68.33
76311;BME280;65120;59.304;18.294;2023-02-01T07:55:26;99232.94;;;-0.57;69.33
76311;BME280;65120;59.304;18.294;2023-02-01T07:57:56;99231.25;;;-0.56;68.41
76311;BME280;65120;59.304;18.294;2023-02-01T08:00:24;99229.53;;;-0.56;69.19
76311;BME280;65120;59.304;18.294;2023-02-01T08:03:08;99230.38;;;-0.57;68.68
76311;BME280;65120;59.304;18.294;2023-02-01T08:05:36;99237.19;;;-0.54;68.81
76311;BME280;65120;59.304;18.294;2023-02-01T08:08:03;99229.53;;;-0.56;69.10
76311;BME280;65120;59.304;18.294;2023-02-01T08:10:30;99226.97;;;-0.51;69.18
76311;BME280;65120;59.304;18.294;2023-02-01T08:12:58;99235.50;;;-0.49;68.68
76311;BME280;65120;59.304;18.294;2023-02-01T08:15:26;99233.81;;;-0.50;68.72
76311;BME280;65120;59.304;18.294;2023-02-01T08:17:53;99238.06;;;-0.46;69.03
76311;BME280;65120;59.304;18.294;2023-02-01T08:20:21;99236.38;;;-0.44;68.62
76311;BME280;65120;59.304;18.294;2023-02-01T08:22:50;99241.53;;;-0.42;69.53
76311;BME280;65120;59.304;18.294;2023-02-01T08:25:17;99242.38;;;-0.42;69.07
76311;BME280;65120;59.304;18.294;2023-02-01T08:27:45;99226.97;;;-0.51;68.91
76311;BME280;65120;59.304;18.294;2023-02-01T08:30:12;99233.81;;;-0.42;69.02
76311;BME280;65120;59.304;18.294;2023-02-01T08:32:39;99215.84;;;-0.53;68.64
76311;BME280;65120;59.304;18.294;2023-02-01T08:35:07;99245.78;;;-0.38;68.68
76311;BME280;65120;59.304;18.294;2023-02-01T08:37:34;99249.22;;;-0.32;69.08
76311;BME280;65120;59.304;18.294;2023-02-01T08:40:04;99250.94;;;-0.31;69.18
76311;BME280;65120;59.304;18.294;2023-02-01T08:42:31;99254.34;;;-0.29;68.93
76311;BME280;65120;59.304;18.294;2023-02-01T08:45:17;99258.63;;;-0.25;69.64
76311;BME280;65120;59.304;18.294;2023-02-01T08:47:45;99257.78;;;-0.27;69.14
76311;BME280;65120;59.304;18.294;2023-02-01T08:50:13;99258.63;;;-0.21;69.42
76311;BME280;65120;59.304;18.294;2023-02-01T08:52:40;99256.06;;;-0.18;69.42
76311;BME280;65120;59.304;18.294;2023-02-01T08:55:09;99247.50;;;-0.17;69.15
76311;BME280;65120;59.304;18.294;2023-02-01T08:57:36;99250.94;;;-0.12;69.34
76311;BME280;65120;59.304;18.294;2023-02-01T09:00:07;99250.94;;;-0.11;69.46
76311;BME280;65120;59.304;18.294;2023-02-01T09:02:35;99255.22;;;-0.07;69.52
76311;BME280;65120;59.304;18.294;2023-02-01T09:05:02;99247.53;;;-0.05;69.32
76311;BME280;65120;59.304;18.294;2023-02-01T09:07:30;99247.53;;;-0.02;69.30
76311;BME280;65120;59.304;18.294;2023-02-01T09:09:56;99215.88;;;-0.19;68.73
76311;BME280;65120;59.304;18.294;2023-02-01T09:12:28;99244.09;;;0.04;68.88
76311;BME280;65120;59.304;18.294;2023-02-01T09:14:55;99250.06;;;0.06;69.33
76311;BME280;65120;59.304;18.294;2023-02-01T09:17:22;99250.94;;;0.08;69.27
76311;BME280;65120;59.304;18.294;2023-02-01T09:19:49;99252.66;;;0.10;69.38
76311;BME280;65120;59.304;18.294;2023-02-01T09:22:15;99250.09;;;0.12;68.91
76311;BME280;65120;59.304;18.294;2023-02-01T09:24:42;99250.94;;;0.11;68.50
76311;BME280;65120;59.304;18.294;2023-02-01T09:27:09;99256.06;;;0.15;69.53
76311;BME280;65120;59.304;18.294;2023-02-01T09:29:38;99259.47;;;0.19;68.60
76311;BME280;65120;59.304;18.294;2023-02-01T09:32:05;99265.47;;;0.21;69.29
76311;BME280;65120;59.304;18.294;2023-02-01T09:34:32;99264.63;;;0.24;68.76
76311;BME280;65120;59.304;18.294;2023-02-01T09:36:59;99271.47;;;0.26;68.70
76311;BME280;65120;59.304;18.294;2023-02-01T09:39:27;99262.88;;;0.26;69.05
76311;BME280;65120;59.304;18.294;2023-02-01T09:42:05;99275.75;;;0.32;69.34
76311;BME280;65120;59.304;18.294;2023-02-01T09:44:58;99281.72;;;0.34;68.72
76311;BME280;65120;59.304;18.294;2023-02-01T09:47:30;99243.22;;;0.17;68.57
76311;BME280;65120;59.304;18.294;2023-02-01T09:50:02;99274.00;;;0.34;69.30
76311;BME280;65120;59.304;18.294;2023-02-01T09:52:34;99275.72;;;0.39;69.41
76311;BME280;65120;59.304;18.294;2023-02-01T09:55:05;99262.03;;;0.33;69.30
76311;BME280;65120;59.304;18.294;2023-02-01T09:57:41;99271.47;;;0.43;69.19
76311;BME280;65120;59.304;18.294;2023-02-01T10:00:21;99264.56;;;0.45;69.19
76311;BME280;65120;59.304;18.294;2023-02-01T10:02:50;99264.56;;;0.45;68.91
76311;BME280;65120;59.304;18.294;2023-02-01T10:05:21;99266.31;;;0.49;68.72
76311;BME280;65120;59.304;18.294;2023-02-01T10:07:57;99262.00;;;0.53;69.07
76311;BME280;65120;59.304;18.294;2023-02-01T10:10:31;99264.59;;;0.54;68.76
76311;BME280;65120;59.304;18.294;2023-02-01T10:13:22;99262.00;;;0.57;68.77
76311;BME280;65120;59.304;18.294;2023-02-01T10:16:09;99269.69;;;0.60;68.84
76311;BME280;65120;59.304;18.294;2023-02-01T10:18:57;99273.97;;;0.61;68.56
76311;BME280;65120;59.304;18.294;2023-02-01T10:21:39;99266.25;;;0.61;68.83
76311;BME280;65120;59.304;18.294;2023-02-01T10:24:20;99276.53;;;0.64;69.03
76311;BME280;65120;59.304;18.294;2023-02-01T10:26:55;99276.53;;;0.67;68.92
76311;BME280;65120;59.304;18.294;2023-02-01T10:29:27;99285.09;;;0.70;68.77
76311;BME280;65120;59.304;18.294;2023-02-01T10:31:56;99278.25;;;0.72;68.64
76311;BME280;65120;59.304;18.294;2023-02-01T10:34:27;99285.09;;;0.73;69.23
76311;BME280;65120;59.304;18.294;2023-02-01T10:36:56;99285.09;;;0.73;69.07
76311;BME280;65120;59.304;18.294;2023-02-01T10:39:24;99286.78;;;0.74;68.84
76311;BME280;65120;59.304;18.294;2023-02-01T10:41:51;99289.38;;;0.75;68.69
76311;BME280;65120;59.304;18.294;2023-02-01T10:44:21;99296.19;;;0.76;69.52
76311;BME280;65120;59.304;18.294;2023-02-01T10:46:50;99305.63;;;0.79;68.53
76311;BME280;65120;59.304;18.294;2023-02-01T10:49:22;99303.06;;;0.79;69.15
76311;BME280;65120;59.304;18.294;2023-02-01T10:51:53;99298.75;;;0.82;68.80
76311;BME280;65120;59.304;18.294;2023-02-01T10:54:32;99298.75;;;0.84;69.27
76311;BME280;65120;59.304;18.294;2023-02-01T10:56:59;99297.88;;;0.85;68.85
76311;BME280;65120;59.304;18.294;2023-02-01T10:59:28;99298.75;;;0.88;68.79
76311;BME280;65120;59.304;18.294;2023-02-01T11:01:59;99296.19;;;0.87;69.53
76311;BME280;65120;59.304;18.294;2023-02-01T11:04:32;99294.47;;;0.92;68.50
76311;BME280;65120;59.304;18.294;2023-02-01T11:07:06;99286.72;;;0.95;69.26
76311;BME280;65120;59.304;18.294;2023-02-01T11:09:35;99291.88;;;0.95;69.30
76311;BME280;65120;59.304;18.294;2023-02-01T11:12:27;99286.72;;;0.95;69.10
76311;BME280;65120;59.304;18.294;2023-02-01T11:14:59;99288.41;;;0.99;69.24
76311;BME280;65120;59.304;18.294;2023-02-01T11:17:34;99285.84;;;1.01;68.26
76311;BME280;65120;59.304;18.294;2023-02-01T11:20:06;99290.13;;;1.02;68.76
76311;BME280;65120;59.304;18.294;2023-02-01T11:22:45;99284.13;;;1.04;69.15
76311;BME280;65120;59.304;18.294;2023-02-01T11:25:15;99294.38;;;1.07;68.64
76311;BME280;65120;59.304;18.294;2023-02-01T11:27:43;99294.41;;;1.09;68.78
76311;BME280;65120;59.304;18.294;2023-02-01T11:30:15;99298.69;;;1.11;69.10
76311;BME280;65120;59.304;18.294;2023-02-01T11:32:42;99302.94;;;1.12;69.19
76311;BME280;65120;59.304;18.294;2023-02-01T11:35:17;99295.25;;;1.14;68.82
76311;BME280;65120;59.304;18.294;2023-02-01T11:37:50;99296.94;;;1.15;69.33
76311;BME280;65120;59.304;18.294;2023-02-01T11:40:28;99296.94;;;1.18;69.16
76311;BME280;65120;59.304;18.294;2023-02-01T11:42:58;99298.63;;;1.19;68.78
76311;BME280;65120;59.304;18.294;2023-02-01T11:45:27;99304.63;;;1.21;68.73
76311;BME280;65120;59.304;18.294;2023-02-01T11:47:55;99300.34;;;1.23;68.84
76311;BME280;65120;59.304;18.294;2023-02-01T11:50:32;99304.59;;;1.24;68.87
76311;BME280;65120;59.304;18.294;2023-02-01T11:53:14;99309.75;;;1.26;68.78
76311;BME280;65120;59.304;18.294;2023-02-01T11:55:55;99314.03;;;1.27;69.45
76311;BME280;65120;59.304;18.294;2023-02-01T12:01:41;99316.59;;;1.31;68.87
76311;BME280;65120;59.304;18.294;2023-02-01T12:04:44;99317.44;;;1.30;68.47
76311;BME280;65120;59.304;18.294;2023-02-01T12:07:18;99321.72;;;1.34;68.61
76311;BME280;65120;59.304;18.294;2023-02-01T12:09:56;99326.00;;;1.35;69.02
76311;BME280;65120;59.304;18.294;2023-02-01T12:12:33;99315.75;;;1.31;68.92
76311;BME280;65120;59.304;18.294;2023-02-01T12:15:17;99334.56;;;1.39;69.13
76311;BME280;65120;59.304;18.294;2023-02-01T12:21:04;99333.72;;;1.40;68.80
76311;BME280;65120;59.304;18.294;2023-02-01T12:23:49;99327.69;;;1.41;68.67
76311;BME280;65120;59.304;18.294;2023-02-01T12:26:43;99325.97;;;1.43;68.66
76311;BME280;65120;59.304;18.294;2023-02-01T12:29:19;99331.97;;;1.44;69.10
76311;BME280;65120;59.304;18.294;2023-02-01T12:32:01;99325.09;;;1.44;68.97
76311;BME280;65120;59.304;18.294;2023-02-01T12:37:48;99336.25;;;1.46;68.96
76311;BME280;65120;59.304;18.294;2023-02-01T12:40:31;99334.56;;;1.45;68.43
76311;BME280;65120;59.304;18.294;2023-02-01T12:43:07;99337.09;;;1.47;69.11
76311;BME280;65120;59.304;18.294;2023-02-01T12:45:39;99344.84;;;1.45;68.97
76311;BME280;65120;59.304;18.294;2023-02-01T12:48:20;99337.13;;;1.41;68.60
76311;BME280;65120;59.304;18.294;2023-02-01T12:50:52;99324.31;;;1.30;69.09
76311;BME280;65120;59.304;18.294;2023-02-01T12:53:25;99352.53;;;1.48;68.30
76311;BME280;65120;59.304;18.294;2023-02-01T12:55:58;99356.81;;;1.49;69.10
76311;BME280;65120;59.304;18.294;2023-02-01T12:58:32;99359.38;;;1.48;68.92
76311;BME280;65120;59.304;18.294;2023-02-01T13:01:05;99362.84;;;1.47;69.02
76311;BME280;65120;59.304;18.294;2023-02-01T13:03:36;99337.19;;;1.31;68.58
76311;BME280;65120;59.304;18.294;2023-02-01T13:06:08;99345.72;;;1.38;68.62
76311;BME280;65120;59.304;18.294;2023-02-01T13:08:43;99358.56;;;1.46;68.34
76311;BME280;65120;59.304;18.294;2023-02-01T13:11:18;99363.72;;;1.41;68.92
76311;BME280;65120;59.304;18.294;2023-02-01T13:13:55;99359.44;;;1.40;69.10
76311;BME280;65120;59.304;18.294;2023-02-01T13:16:25;99368.84;;;1.46;68.55
76311;BME280;65120;59.304;18.294;2023-02-01T13:18:59;99364.53;;;1.45;68.91
76311;BME280;65120;59.304;18.294;2023-02-01T13:21:32;99368.84;;;1.44;68.94
76311;BME280;65120;59.304;18.294;2023-02-01T13:24:00;99373.13;;;1.44;68.47